Terminal Aerodrome Forecast
Issued by NWS Twin Cities, MN

Home | Current Version | Previous Version | Text Only | Print | Product List | Glossary Off
Versions: 1 2 3 4 5 6 7 8 9 10 11 12

692
FTUS43 KMPX 161120
TAFSTC
TAF
KSTC 161120Z 1612/1712 20007KT P6SM SCT250
     FM161800 20015G22KT P6SM SKC
     FM162200 19008KT P6SM SKC=

USA.gov is the U.S. government's official web portal to all federal, state and local government web resources and services.